aviador You're here:

LFMK Decoded Metar

Carcassonne in FRANCE
Report Time2018-01-18 01:30:00
UTC Time2018-01-18 01:52:27
Flight Rules vfr VFR
Wind270° at 05 kt
W.Decomp.*RWY 28: 4.9 kt HW 0.9 kt LCW
W.Rank270° ranks 4
Current wind is below 270° avg. (8.3)
Visibility9999 m
Phenomena:N/A
Clouds:N/A
Expected CloudBase > 800 ft AGL from Temp-Dew spread
CeilingNone
Temp06°C (ISA -8)
Dew Point04°C (87% RH)
AAT2.9°C
QNH1026 hPa
Density Alt-883 ft
Elevation427 ft
Report Wrong Elevation
Raw Report
LFMK 180130Z AUTO 27005KT CAVOK 06/04 Q1026=

Extra information for LFMK:More info

Metar Taf Metar & Taf Last 4 Metars F.Rules Stats Wind Profile Meteogram Temp Stats Airport Information Weather charts Add Link Nearby VenuesMetar ALERT Operation Metar Decoded Social comments

AudeAéroServices
Aéroprakt A-22
Husky Dealer